createdAt,value
2022-10-02T00:01:21.772Z,100080.09
2022-10-02T00:03:49.983Z,100069.58
2022-10-02T00:06:23.601Z,100068.13
2022-10-02T00:08:57.212Z,100067.31
2022-10-02T00:11:35.081Z,100062.30
2022-10-02T00:14:10.052Z,100064.60
2022-10-02T00:16:42.320Z,100052.27
2022-10-02T00:19:15.536Z,100042.80
2022-10-02T00:22:08.368Z,100040.08
2022-10-02T00:24:45.129Z,100036.29
2022-10-02T00:27:37.391Z,100021.64
2022-10-02T00:30:10.987Z,100006.06
2022-10-02T00:32:47.851Z,99999.73
2022-10-02T00:35:39.511Z,99992.70
2022-10-02T00:38:23.566Z,99979.92
2022-10-02T00:41:12.827Z,99982.46
2022-10-02T00:43:55.735Z,99982.02
2022-10-02T00:46:38.845Z,99971.98
2022-10-02T00:49:34.552Z,99962.31
2022-10-02T00:52:17.452Z,99964.83
2022-10-02T00:55:20.674Z,99969.11
2022-10-02T00:58:03.332Z,99971.20
2022-10-02T01:00:32.874Z,99967.40
2022-10-02T01:03:23.802Z,99972.39
2022-10-02T01:05:53.057Z,99979.45
2022-10-02T01:08:22.131Z,99983.06
2022-10-02T01:10:53.271Z,99969.34
2022-10-02T01:13:22.948Z,99962.39
2022-10-02T01:15:54.517Z,99955.02
2022-10-02T01:18:23.635Z,99952.66
2022-10-02T01:20:58.091Z,99950.39
2022-10-02T01:23:36.565Z,99948.40
2022-10-02T01:26:06.260Z,99952.91
2022-10-02T01:28:35.530Z,99957.06
2022-10-02T01:31:07.747Z,99964.70
2022-10-02T01:33:41.039Z,99965.43
2022-10-02T01:36:11.419Z,99964.81
2022-10-02T01:38:44.509Z,99970.52
2022-10-02T01:41:13.799Z,99980.08
2022-10-02T01:43:48.040Z,99989.52
2022-10-02T01:46:33.646Z,99999.02
2022-10-02T01:49:17.574Z,99996.96
2022-10-02T01:52:20.761Z,100009.38
2022-10-02T01:55:16.950Z,100012.76
2022-10-02T01:58:01.317Z,100015.80
2022-10-02T02:00:39.556Z,100012.42
2022-10-02T02:03:18.996Z,100016.91
2022-10-02T02:05:54.325Z,100021.09
2022-10-02T02:08:29.126Z,100015.06
2022-10-02T02:11:10.225Z,100014.68
2022-10-02T02:13:47.503Z,100008.09
2022-10-02T02:16:24.203Z,100002.71
2022-10-02T02:19:01.800Z,100001.75
2022-10-02T02:21:33.519Z,100001.53
2022-10-02T02:24:10.010Z,100008.76
2022-10-02T02:26:43.301Z,99996.42
2022-10-02T02:29:14.794Z,99989.16
2022-10-02T02:31:49.851Z,99993.02
2022-10-02T02:34:23.435Z,99992.31
2022-10-02T02:37:02.279Z,99985.87
2022-10-02T02:39:37.829Z,99978.30
2022-10-02T02:42:13.603Z,99975.36
2022-10-02T02:44:51.094Z,99971.25
2022-10-02T02:47:24.407Z,99970.70
2022-10-02T02:49:59.640Z,99970.00
2022-10-02T02:52:31.184Z,99967.61
2022-10-02T02:55:06.330Z,99953.25
2022-10-02T02:57:41.044Z,99960.11
2022-10-02T03:00:12.715Z,99952.41
2022-10-02T03:02:41.952Z,99951.17
2022-10-02T03:05:17.988Z,99944.16
2022-10-02T03:07:52.787Z,99948.21
2022-10-02T03:10:35.718Z,99948.28
2022-10-02T03:13:16.897Z,99954.95
2022-10-02T03:16:00.616Z,99953.80
2022-10-02T03:18:47.576Z,99949.81
2022-10-02T03:21:23.935Z,99955.86
2022-10-02T03:24:04.354Z,99961.75
2022-10-02T03:26:40.748Z,99968.95
2022-10-02T03:29:18.939Z,99968.83
2022-10-02T03:31:50.049Z,99959.73
2022-10-02T03:34:19.666Z,99970.93
2022-10-02T03:36:49.069Z,99972.95
2022-10-02T03:39:25.140Z,99973.65
2022-10-02T03:41:55.502Z,99974.75
2022-10-02T03:44:24.590Z,99971.02
2022-10-02T03:46:53.462Z,99976.23
2022-10-02T03:49:22.815Z,99984.85
2022-10-02T03:51:53.354Z,99987.54
2022-10-02T03:54:23.242Z,99994.39
2022-10-02T03:56:56.868Z,100002.65
2022-10-02T03:59:40.489Z,99990.51
2022-10-02T04:02:19.399Z,99987.81
2022-10-02T04:04:54.400Z,99978.05
2022-10-02T04:07:30.900Z,99975.65
2022-10-02T04:10:14.851Z,99977.98
2022-10-02T04:12:49.139Z,99977.88
2022-10-02T04:15:25.928Z,99987.55
2022-10-02T04:18:01.316Z,99984.55
2022-10-02T04:20:36.750Z,99996.04
2022-10-02T04:23:17.256Z,99994.72
2022-10-02T04:25:53.429Z,99992.86
2022-10-02T04:28:27.366Z,99992.48
2022-10-02T04:30:56.680Z,99985.19
2022-10-02T04:33:26.717Z,99985.29
2022-10-02T04:36:08.130Z,99981.41
2022-10-02T04:39:02.216Z,99974.84
2022-10-02T04:41:51.118Z,99987.91
2022-10-02T04:44:30.177Z,99988.23
2022-10-02T04:47:20.830Z,99992.17
2022-10-02T04:50:04.537Z,99991.84
2022-10-02T04:52:52.030Z,99991.48
2022-10-02T04:55:38.278Z,99995.19
2022-10-02T04:58:33.099Z,100002.52
2022-10-02T05:01:16.923Z,100000.94
2022-10-02T05:04:04.214Z,100000.94
2022-10-02T05:06:52.077Z,100006.46
2022-10-02T05:09:29.738Z,100013.09
2022-10-02T05:12:39.054Z,100021.36
2022-10-02T05:15:35.955Z,100026.58
2022-10-02T05:18:21.205Z,100028.58
2022-10-02T05:21:07.487Z,100036.44
2022-10-02T05:23:58.423Z,100042.02
2022-10-02T05:26:57.443Z,100043.90
2022-10-02T05:29:57.586Z,100046.55
2022-10-02T05:32:51.485Z,100046.06
2022-10-02T05:35:38.521Z,100050.05
2022-10-02T05:38:22.528Z,100051.71
2022-10-02T05:41:01.019Z,100059.25
2022-10-02T05:43:40.628Z,100053.95
2022-10-02T05:46:14.809Z,100061.47
2022-10-02T05:48:48.935Z,100067.23
2022-10-02T05:51:26.791Z,100068.42
2022-10-02T05:54:02.667Z,100069.00
2022-10-02T05:56:39.119Z,100067.58
2022-10-02T05:59:14.889Z,100071.66
2022-10-02T06:01:49.862Z,100076.55
2022-10-02T06:04:27.523Z,100084.48
2022-10-02T06:07:03.013Z,100093.44
2022-10-02T06:09:36.083Z,100087.31
2022-10-02T06:12:11.875Z,100085.60
2022-10-02T06:14:47.348Z,100088.02
2022-10-02T06:17:26.259Z,100090.79
2022-10-02T06:20:19.503Z,100089.33
2022-10-02T06:22:54.028Z,100092.02
2022-10-02T06:25:27.849Z,100101.59
2022-10-02T06:28:02.745Z,100115.99
2022-10-02T06:30:38.756Z,100120.96
2022-10-02T06:33:15.900Z,100123.16
2022-10-02T06:36:13.203Z,100125.92
2022-10-02T06:39:00.543Z,100127.86
2022-10-02T06:41:38.841Z,100129.75
2022-10-02T06:44:17.985Z,100132.88
2022-10-02T06:46:56.945Z,100118.89
2022-10-02T06:49:39.091Z,100113.86
2022-10-02T06:52:20.948Z,100127.97
2022-10-02T06:55:07.702Z,100134.08
2022-10-02T06:57:52.984Z,100129.19
2022-10-02T07:00:22.366Z,100138.06
2022-10-02T07:03:16.860Z,100136.66
2022-10-02T07:06:05.841Z,100135.38
2022-10-02T07:09:11.439Z,100133.23
2022-10-02T07:11:53.473Z,100132.00
2022-10-02T07:14:50.548Z,100150.59
2022-10-02T07:17:34.060Z,100143.61
2022-10-02T07:20:32.783Z,100154.05
2022-10-02T07:23:26.894Z,100162.09
2022-10-02T07:29:48.578Z,100178.06
2022-10-02T07:32:56.469Z,100173.00
2022-10-02T07:35:51.356Z,100183.73
2022-10-02T07:38:56.505Z,100176.89
2022-10-02T07:41:52.422Z,100184.73
2022-10-02T07:44:42.128Z,100184.60
2022-10-02T07:47:26.905Z,100180.48
2022-10-02T07:50:03.783Z,100184.27
2022-10-02T07:52:55.613Z,100190.70
2022-10-02T07:55:25.997Z,100183.92
2022-10-02T07:58:04.917Z,100187.06
2022-10-02T08:00:39.612Z,100186.23
2022-10-02T08:03:16.034Z,100186.14
2022-10-02T08:05:49.322Z,100185.02
2022-10-02T08:08:31.899Z,100182.08
2022-10-02T08:11:08.562Z,100184.38
2022-10-02T08:13:45.523Z,100185.49
2022-10-02T08:16:22.817Z,100194.21
2022-10-02T08:18:57.373Z,100193.90
2022-10-02T08:21:30.599Z,100197.81
2022-10-02T08:24:04.685Z,100204.73
2022-10-02T08:26:45.957Z,100210.91
2022-10-02T08:29:24.765Z,100206.06
2022-10-02T08:31:54.561Z,100215.33
2022-10-02T08:34:26.075Z,100207.55
2022-10-02T08:37:28.261Z,100206.30
2022-10-02T08:40:31.305Z,100226.02
2022-10-02T08:43:23.191Z,100212.25
2022-10-02T08:46:48.347Z,100215.50
2022-10-02T08:50:00.550Z,100236.77
2022-10-02T08:56:06.989Z,100231.56
2022-10-02T08:59:04.920Z,100227.89
2022-10-02T09:02:19.284Z,100237.91
2022-10-02T09:05:18.761Z,100239.27
2022-10-02T09:08:17.423Z,100231.98
2022-10-02T09:11:21.249Z,100234.04
2022-10-02T09:14:19.821Z,100224.66
2022-10-02T09:17:24.116Z,100229.08
2022-10-02T09:20:15.931Z,100237.23
2022-10-02T09:23:15.617Z,100245.38
2022-10-02T09:25:55.885Z,100236.64
2022-10-02T09:29:04.128Z,100239.71
2022-10-02T09:32:21.304Z,100238.94
2022-10-02T09:35:35.351Z,100256.70
2022-10-02T09:38:29.737Z,100249.52
2022-10-02T09:41:29.515Z,100242.98
2022-10-02T09:44:33.781Z,100243.67
2022-10-02T09:47:49.468Z,100258.82
2022-10-02T09:50:50.723Z,100251.98
2022-10-02T09:53:45.204Z,100240.13
2022-10-02T09:56:45.086Z,100242.71
2022-10-02T09:59:42.686Z,100236.66
2022-10-02T10:02:54.038Z,100240.04
2022-10-02T10:05:51.519Z,100258.55
2022-10-02T10:09:01.310Z,100255.40
2022-10-02T10:12:04.779Z,100274.61
2022-10-02T10:15:24.859Z,100255.84
2022-10-02T10:18:26.142Z,100253.41
2022-10-02T10:21:32.088Z,100251.73
2022-10-02T10:24:29.644Z,100259.02
2022-10-02T10:27:17.000Z,100261.23
2022-10-02T10:30:16.818Z,100258.02
2022-10-02T10:33:19.623Z,100275.54
2022-10-02T10:35:59.852Z,100266.08
2022-10-02T10:38:42.553Z,100259.02
2022-10-02T10:41:41.475Z,100262.78
2022-10-02T10:44:42.513Z,100249.95
2022-10-02T10:47:30.497Z,100257.44
2022-10-02T10:50:19.617Z,100246.73
2022-10-02T10:53:10.374Z,100254.47
2022-10-02T10:55:58.822Z,100260.86
2022-10-02T10:58:40.925Z,100259.98
2022-10-02T11:01:16.943Z,100268.71
2022-10-02T11:04:12.855Z,100268.83
2022-10-02T11:07:15.087Z,100269.63
2022-10-02T11:10:04.342Z,100275.23
2022-10-02T11:12:53.106Z,100254.49
2022-10-02T11:15:52.701Z,100266.35
2022-10-02T11:18:35.694Z,100258.70
2022-10-02T11:21:19.025Z,100273.05
2022-10-02T11:24:20.620Z,100264.28
2022-10-02T11:27:16.251Z,100267.20
2022-10-02T11:30:29.178Z,100267.42
2022-10-02T11:33:41.365Z,100274.98
2022-10-02T11:36:42.348Z,100279.09
2022-10-02T11:39:36.349Z,100281.30
2022-10-02T11:42:25.970Z,100283.92
2022-10-02T11:45:15.950Z,100281.08
2022-10-02T11:48:23.556Z,100285.86
2022-10-02T11:51:09.616Z,100292.14
2022-10-02T11:54:04.408Z,100293.11
2022-10-02T11:56:53.189Z,100299.61
2022-10-02T11:59:46.932Z,100297.06
2022-10-02T12:02:22.991Z,100301.39
2022-10-02T12:05:15.019Z,100301.04
2022-10-02T12:07:55.197Z,100305.39
2022-10-02T12:10:33.054Z,100320.27
2022-10-02T12:13:31.606Z,100306.58
2022-10-02T12:16:10.997Z,100306.15
2022-10-02T12:18:53.954Z,100308.01
2022-10-02T12:21:54.869Z,100306.11
2022-10-02T12:24:56.218Z,100306.98
2022-10-02T12:27:40.650Z,100310.61
2022-10-02T12:30:14.590Z,100299.18
2022-10-02T12:33:07.724Z,100291.83
2022-10-02T12:36:04.812Z,100288.46
2022-10-02T12:38:51.813Z,100292.77
2022-10-02T12:41:40.499Z,100285.90
2022-10-02T12:44:42.820Z,100300.42
2022-10-02T12:47:49.758Z,100300.71
2022-10-02T12:50:55.108Z,100313.72
2022-10-02T12:54:07.081Z,100311.66
2022-10-02T12:57:38.725Z,100303.44
2022-10-02T13:00:14.461Z,100306.14
2022-10-02T13:03:46.729Z,100309.16
2022-10-02T13:06:57.049Z,100326.85
2022-10-02T13:09:47.529Z,100322.11
2022-10-02T13:12:38.762Z,100321.65
2022-10-02T13:15:44.300Z,100320.58
2022-10-02T13:18:32.653Z,100322.57
2022-10-02T13:21:11.680Z,100327.87
2022-10-02T13:23:51.419Z,100335.85
2022-10-02T13:26:33.110Z,100320.53
2022-10-02T13:29:16.871Z,100330.48
2022-10-02T13:32:07.591Z,100314.98
2022-10-02T13:34:53.295Z,100320.02
2022-10-02T13:37:37.707Z,100339.48
2022-10-02T13:40:29.008Z,100338.03
2022-10-02T13:43:20.613Z,100342.77
2022-10-02T13:45:58.975Z,100325.95
2022-10-02T13:48:42.422Z,100334.06
2022-10-02T13:51:19.468Z,100346.75
2022-10-02T13:54:03.489Z,100342.85
2022-10-02T13:56:50.227Z,100350.38
2022-10-02T13:59:41.512Z,100349.91
2022-10-02T14:02:39.074Z,100362.40
2022-10-02T14:05:19.891Z,100364.76
2022-10-02T14:08:13.265Z,100359.98
2022-10-02T14:10:53.989Z,100384.59
2022-10-02T14:13:36.039Z,100362.09
2022-10-02T14:16:25.101Z,100371.67
2022-10-02T14:19:24.593Z,100373.55
2022-10-02T14:22:11.838Z,100372.03
2022-10-02T14:25:03.744Z,100383.86
2022-10-02T14:28:08.864Z,100371.60
2022-10-02T14:30:54.604Z,100365.29
2022-10-02T14:33:35.414Z,100362.61
2022-10-02T14:36:15.425Z,100363.10
2022-10-02T14:39:00.472Z,100366.69
2022-10-02T14:41:51.960Z,100369.23
2022-10-02T14:44:49.440Z,100370.40
2022-10-02T14:47:32.660Z,100364.39
2022-10-02T14:50:23.367Z,100372.54
2022-10-02T14:53:10.906Z,100363.73
2022-10-02T14:56:08.027Z,100365.21
2022-10-02T14:58:53.327Z,100376.92
2022-10-02T15:01:24.037Z,100376.91
2022-10-02T15:04:18.717Z,100376.86
2022-10-02T15:07:01.453Z,100384.13
2022-10-02T15:09:38.829Z,100387.11
2022-10-02T15:12:16.270Z,100401.04
2022-10-02T15:15:01.907Z,100397.44
2022-10-02T15:17:59.886Z,100398.82
2022-10-02T15:20:40.404Z,100408.98
2022-10-02T15:23:14.070Z,100412.83
2022-10-02T15:26:10.245Z,100416.92
2022-10-02T15:28:53.857Z,100415.25
2022-10-02T15:31:35.810Z,100417.40
2022-10-02T15:34:15.627Z,100418.05
2022-10-02T15:37:00.225Z,100424.23
2022-10-02T15:39:58.826Z,100430.66
2022-10-02T15:42:49.432Z,100428.39
2022-10-02T15:45:40.377Z,100432.08
2022-10-02T15:48:30.423Z,100431.88
2022-10-02T15:51:11.634Z,100427.90
2022-10-02T15:53:55.114Z,100437.13
2022-10-02T15:56:46.838Z,100443.10
2022-10-02T15:59:45.780Z,100441.50
2022-10-02T16:02:31.996Z,100439.72
2022-10-02T16:05:15.211Z,100446.88
2022-10-02T16:08:00.198Z,100441.67
2022-10-02T16:10:37.251Z,100447.03
2022-10-02T16:13:31.193Z,100448.42
2022-10-02T16:16:08.335Z,100452.28
2022-10-02T16:18:58.368Z,100458.46
2022-10-02T16:21:37.472Z,100460.92
2022-10-02T16:24:36.123Z,100460.48
2022-10-02T16:27:28.439Z,100464.06
2022-10-02T16:30:12.945Z,100460.33
2022-10-02T16:33:01.981Z,100458.05
2022-10-02T16:35:54.985Z,100466.89
2022-10-02T16:38:38.286Z,100468.69
2022-10-02T16:41:24.791Z,100472.77
2022-10-02T16:44:11.185Z,100480.58
2022-10-02T16:46:45.065Z,100471.34
2022-10-02T16:49:23.685Z,100466.09
2022-10-02T16:55:21.207Z,100463.80
2022-10-02T16:58:14.116Z,100454.10
2022-10-02T17:00:57.048Z,100453.91
2022-10-02T17:03:35.299Z,100455.48
2022-10-02T17:06:07.392Z,100452.34
2022-10-02T17:08:44.107Z,100453.77
2022-10-02T17:11:20.975Z,100451.00
2022-10-02T17:14:10.157Z,100448.90
2022-10-02T17:16:44.990Z,100449.07
2022-10-02T17:19:26.261Z,100451.19
2022-10-02T17:22:01.204Z,100457.23
2022-10-02T17:24:42.631Z,100459.36
2022-10-02T17:27:25.584Z,100462.81
2022-10-02T17:30:03.127Z,100456.14
2022-10-02T17:32:38.473Z,100463.42
2022-10-02T17:35:16.291Z,100471.92
2022-10-02T17:38:10.452Z,100470.80
2022-10-02T17:40:48.499Z,100477.02
2022-10-02T17:47:04.536Z,100482.48
2022-10-02T17:49:49.609Z,100485.35
2022-10-02T17:52:45.001Z,100484.58
2022-10-02T17:56:10.634Z,100483.45
2022-10-02T17:58:57.803Z,100485.52
2022-10-02T18:01:34.718Z,100484.28
2022-10-02T18:04:12.286Z,100485.98
2022-10-02T18:06:52.578Z,100485.13
2022-10-02T18:09:46.940Z,100483.23
2022-10-02T18:12:44.323Z,100481.07
2022-10-02T18:15:29.840Z,100481.86
2022-10-02T18:18:18.122Z,100482.89
2022-10-02T18:20:56.849Z,100484.91
2022-10-02T18:23:54.209Z,100476.36
2022-10-02T18:26:37.770Z,100467.36
2022-10-02T18:29:33.478Z,100469.52
2022-10-02T18:32:25.818Z,100465.86
2022-10-02T18:35:14.825Z,100467.65
2022-10-02T18:38:02.028Z,100466.05
2022-10-02T18:40:34.602Z,100462.89
2022-10-02T18:43:36.566Z,100464.27
2022-10-02T18:46:18.830Z,100460.52
2022-10-02T18:49:11.494Z,100458.46
2022-10-02T18:52:20.998Z,100461.41
2022-10-02T18:55:08.013Z,100462.16
2022-10-02T18:57:51.486Z,100464.27
2022-10-02T19:00:23.222Z,100472.34
2022-10-02T19:03:16.346Z,100472.29
2022-10-02T19:05:53.613Z,100467.94
2022-10-02T19:08:31.507Z,100464.06
2022-10-02T19:11:00.720Z,100467.66
2022-10-02T19:13:38.538Z,100471.68
2022-10-02T19:16:22.365Z,100471.77
2022-10-02T19:19:09.424Z,100473.59
2022-10-02T19:21:39.362Z,100482.18
2022-10-02T19:24:15.161Z,100482.70
2022-10-02T19:26:50.240Z,100483.94
2022-10-02T19:29:28.653Z,100483.02
2022-10-02T19:32:01.000Z,100482.32
2022-10-02T19:34:31.890Z,100484.06
2022-10-02T19:37:11.752Z,100481.79
2022-10-02T19:39:52.787Z,100487.58
2022-10-02T19:42:28.023Z,100486.08
2022-10-02T19:48:21.825Z,100484.02
2022-10-02T19:50:56.636Z,100486.14
2022-10-02T19:53:33.782Z,100486.20
2022-10-02T19:56:14.336Z,100487.20
2022-10-02T19:59:31.048Z,100484.33
2022-10-02T20:02:14.746Z,100483.95
2022-10-02T20:04:47.172Z,100481.26
2022-10-02T20:07:24.865Z,100478.30
2022-10-02T20:10:01.066Z,100483.30
2022-10-02T20:12:38.473Z,100480.92
2022-10-02T20:15:38.819Z,100483.44
2022-10-02T20:18:13.972Z,100476.09
2022-10-02T20:20:47.188Z,100477.83
2022-10-02T20:23:29.076Z,100472.85
2022-10-02T20:26:08.217Z,100472.48
2022-10-02T20:28:49.247Z,100473.16
2022-10-02T20:31:22.898Z,100468.34
2022-10-02T20:33:57.928Z,100467.73
2022-10-02T20:36:32.451Z,100464.91
2022-10-02T20:39:05.269Z,100461.09
2022-10-02T20:41:45.703Z,100464.20
2022-10-02T20:44:14.742Z,100462.20
2022-10-02T20:47:19.398Z,100465.41
2022-10-02T20:50:32.414Z,100468.83
2022-10-02T20:53:28.599Z,100476.83
2022-10-02T20:56:06.783Z,100475.50
2022-10-02T20:59:08.577Z,100475.97
2022-10-02T21:01:45.197Z,100467.40
2022-10-02T21:05:09.212Z,100469.75
2022-10-02T21:08:22.664Z,100468.27
2022-10-02T21:11:26.065Z,100467.67
2022-10-02T21:14:35.254Z,100469.73
2022-10-02T21:17:52.586Z,100469.55
2022-10-02T21:21:01.113Z,100458.42
2022-10-02T21:23:52.606Z,100454.11
2022-10-02T21:26:48.356Z,100448.50
2022-10-02T21:29:37.442Z,100453.88
2022-10-02T21:32:22.510Z,100454.09
2022-10-02T21:35:08.114Z,100456.31
2022-10-02T21:38:03.225Z,100453.61
2022-10-02T21:41:02.179Z,100456.74
2022-10-02T21:44:17.527Z,100454.88
2022-10-02T21:47:22.420Z,100454.63
2022-10-02T21:50:16.954Z,100456.13
2022-10-02T21:53:17.480Z,100452.64
2022-10-02T21:56:12.773Z,100455.63
2022-10-02T21:59:30.691Z,100459.68
2022-10-02T22:02:29.197Z,100462.66
2022-10-02T22:05:24.442Z,100462.72
2022-10-02T22:08:01.290Z,100461.05
2022-10-02T22:10:39.394Z,100460.36
2022-10-02T22:13:21.348Z,100464.77
2022-10-02T22:15:57.999Z,100464.69
2022-10-02T22:18:37.198Z,100463.16
2022-10-02T22:21:20.796Z,100460.23
2022-10-02T22:24:15.858Z,100460.70
2022-10-02T22:26:58.348Z,100460.25
2022-10-02T22:29:42.897Z,100458.55
2022-10-02T22:32:53.570Z,100452.50
2022-10-02T22:35:34.954Z,100457.45
2022-10-02T22:38:14.322Z,100453.45
2022-10-02T22:40:55.439Z,100452.87
2022-10-02T22:43:33.684Z,100452.13
2022-10-02T22:46:07.966Z,100454.09
2022-10-02T22:48:45.013Z,100455.24
2022-10-02T22:51:19.132Z,100453.67
2022-10-02T22:53:54.217Z,100455.89
2022-10-02T22:56:30.208Z,100457.83
2022-10-02T22:59:06.929Z,100469.13
2022-10-02T23:01:44.356Z,100465.66
2022-10-02T23:04:28.200Z,100462.23
2022-10-02T23:07:06.630Z,100465.92
2022-10-02T23:09:47.325Z,100463.16
2022-10-02T23:12:20.029Z,100474.07
2022-10-02T23:15:04.094Z,100469.55
2022-10-02T23:17:39.989Z,100468.73
2022-10-02T23:20:19.284Z,100462.36
2022-10-02T23:22:55.240Z,100467.92
2022-10-02T23:25:30.992Z,100474.36
2022-10-02T23:28:05.673Z,100486.77
2022-10-02T23:30:41.082Z,100479.49
2022-10-02T23:33:23.890Z,100485.02
2022-10-02T23:36:01.270Z,100487.48
2022-10-02T23:38:44.079Z,100483.78
2022-10-02T23:41:39.888Z,100479.42
2022-10-02T23:44:23.658Z,100488.58
2022-10-02T23:47:20.373Z,100492.67
2022-10-02T23:49:53.205Z,100491.21
2022-10-02T23:52:55.046Z,100488.79
2022-10-02T23:55:49.230Z,100488.22
2022-10-02T23:58:35.200Z,100487.86
